KROX/ROX METAR and TAF weather

Enter ICAO airport designator
Station Type Date Time Source
KROX METAR 2019/08/28 14:02 UTC NOAA

KROX 281402Z AUTO 28010G18KT 10SM CLR 13/09 A2976 RMK AO2


Station Type Date Time Source
KROX Decoded METAR 2019/08/28 14:02 UTC NOAA

Roseau, Roseau Municipal Airport/Rudy Billberg Field, MN, United States (KROX) 48-51N 095-42W
Aug 28, 2019 - 10:02 AM EDT / 2019.08.28 1402 UTC
Wind: from the W (280 degrees) at 12 MPH (10 KT) gusting to 21 MPH (18 KT):0
Visibility: 10 mile(s):0
Sky conditions: clear
Temperature: 55 F (13 C)
Dew Point: 48 F (9 C)
Relative Humidity: 76%
Pressure (altimeter): 29.76 in. Hg (1007 hPa)
ob: KROX 281402Z AUTO 28010G18KT 10SM CLR 13/09 A2976 RMK AO2
cycle: 14

Station Type Date Time Source
KROX TAF UTC NOAA

Error!

Example: see airport list